Time;durP1;ratioP1;P1;durP2;ratioP2;P2;SDS_P1;SDS_P2;PMS_P1;PMS_P2;Temp;Humidity;BMP_temperature;BMP_pressure;BME280_temperature;BME280_humidity;BME280_pressure;Samples;Min_cycle;Max_cycle;Signal;HPM_P1;HPM_P2
2022/05/06 00:02:03;;;;;;;16.97;15.27;;;;;;;14.86;94.26;98632.75;4208476;28;20972;-92
2022/05/06 00:04:07;;;;;;;17.70;15.73;;;;;;;14.85;93.92;98639.75;4221157;28;20617;-91
2022/05/06 00:06:11;;;;;;;20.57;15.70;;;;;;;14.83;93.53;98632.97;4205136;28;20644;-91
2022/05/06 00:08:14;;;;;;;16.73;15.00;;;;;;;14.80;94.44;98636.66;4222344;28;20656;-92
2022/05/06 00:10:17;;;;;;;17.03;15.33;;;;;;;14.81;94.36;98638.34;4211323;28;20657;-91
2022/05/06 00:12:22;;;;;;;16.50;14.90;;;;;;;14.78;94.23;98628.06;4203404;28;20680;-91
2022/05/06 00:14:26;;;;;;;17.50;15.80;;;;;;;14.78;95.21;98633.31;4219022;28;20632;-92
2022/05/06 00:16:29;;;;;;;18.03;15.10;;;;;;;14.77;95.20;98633.44;4209731;28;20668;-92
2022/05/06 00:18:33;;;;;;;16.83;15.03;;;;;;;14.73;95.21;98637.25;4230764;27;20635;-92
2022/05/06 00:20:36;;;;;;;17.60;15.80;;;;;;;14.70;95.38;98634.84;4207688;28;20992;-92
2022/05/06 00:22:39;;;;;;;18.47;15.47;;;;;;;14.66;94.31;98638.69;4216521;28;20707;-92
2022/05/06 00:24:43;;;;;;;16.00;14.40;;;;;;;14.63;94.33;98634.50;4213854;28;20661;-92
2022/05/06 00:26:46;;;;;;;15.67;14.13;;;;;;;14.62;94.33;98631.97;4214774;28;20690;-92
2022/05/06 00:28:51;;;;;;;16.00;14.50;;;;;;;14.62;95.77;98634.59;4202995;28;21062;-92
2022/05/06 00:30:55;;;;;;;17.80;13.73;;;;;;;14.61;95.33;98625.91;4223298;28;20643;-92
2022/05/06 00:32:59;;;;;;;15.03;13.57;;;;;;;14.62;95.35;98632.81;4209372;28;20628;-91
2022/05/06 00:35:02;;;;;;;15.43;13.90;;;;;;;14.60;95.78;98629.47;4220777;27;21270;-92
2022/05/06 00:37:05;;;;;;;16.20;13.80;;;;;;;14.64;94.61;98637.94;4223086;27;20635;-92
2022/05/06 00:39:09;;;;;;;14.20;12.90;;;;;;;14.65;94.82;98634.38;4208554;28;20690;-92
2022/05/06 00:41:12;;;;;;;15.73;13.50;;;;;;;14.64;94.62;98633.56;4202304;28;21274;-91
2022/05/06 00:43:15;;;;;;;16.27;13.23;;;;;;;14.64;95.10;98635.31;4199571;28;20649;-91
2022/05/06 00:45:20;;;;;;;15.73;13.87;;;;;;;14.59;95.52;98627.78;4204463;28;20637;-91
2022/05/06 00:47:23;;;;;;;15.03;13.53;;;;;;;14.57;95.14;98633.28;4217785;28;20672;-92
2022/05/06 00:49:27;;;;;;;15.83;14.23;;;;;;;14.56;95.94;98624.56;4206166;28;21044;-91
2022/05/06 00:51:31;;;;;;;14.40;13.00;;;;;;;14.55;95.89;98635.19;4215088;28;20628;-92
2022/05/06 00:53:36;;;;;;;16.60;13.17;;;;;;;14.55;95.68;98625.50;4203992;28;20638;-92
2022/05/06 00:55:39;;;;;;;14.03;12.60;;;;;;;14.51;95.09;98624.09;4233150;27;20720;-92
2022/05/06 00:57:42;;;;;;;15.33;13.83;;;;;;;14.50;94.80;98621.56;4220782;28;20972;-92
2022/05/06 01:02:08;;;;;;;15.00;13.50;;;;;;;14.47;94.71;98622.63;4205072;28;20661;-92
2022/05/06 01:04:14;;;;;;;15.00;13.40;;;;;;;14.46;95.11;98628.00;4208487;28;20696;-92
2022/05/06 01:06:17;;;;;;;14.63;13.13;;;;;;;14.42;94.98;98627.41;4217714;27;20634;-91
2022/05/06 01:08:24;;;;;;;15.03;13.60;;;;;;;14.40;94.79;98625.84;4199843;28;21053;-91
2022/05/06 01:10:29;;;;;;;15.50;13.87;;;;;;;14.37;95.15;98628.69;4201260;28;21058;-91
2022/05/06 01:12:33;;;;;;;15.87;14.20;;;;;;;14.36;94.82;98629.66;4218051;28;20643;-91
2022/05/06 01:14:42;;;;;;;15.83;14.13;;;;;;;14.32;94.69;98630.81;4202105;28;20724;-91
2022/05/06 01:16:55;;;;;;;15.37;13.77;;;;;;;14.27;95.47;98620.66;4205629;28;20681;-91
2022/05/06 01:19:00;;;;;;;15.40;13.70;;;;;;;14.27;95.14;98631.16;4219804;28;20712;-91
2022/05/06 01:21:06;;;;;;;15.57;14.10;;;;;;;14.24;94.79;98630.56;4207028;28;20649;-91
2022/05/06 01:23:12;;;;;;;14.77;13.27;;;;;;;14.23;94.68;98631.50;4205137;28;20991;-91
2022/05/06 01:25:16;;;;;;;14.73;13.03;;;;;;;14.18;94.90;98629.22;4207565;28;20652;-91
2022/05/06 01:27:23;;;;;;;14.37;12.53;;;;;;;14.16;95.10;98632.91;4207315;28;20657;-91
2022/05/06 01:29:29;;;;;;;15.30;13.70;;;;;;;14.14;94.09;98624.31;4219577;28;20744;-91
2022/05/06 01:31:33;;;;;;;13.97;12.57;;;;;;;14.14;94.81;98629.56;4218603;28;20767;-91
2022/05/06 01:33:37;;;;;;;14.93;13.33;;;;;;;14.14;94.46;98637.44;4219167;28;20637;-91
2022/05/06 01:35:43;;;;;;;15.87;14.20;;;;;;;14.15;95.40;98634.69;4203761;28;20643;-91
2022/05/06 01:37:48;;;;;;;15.60;14.10;;;;;;;14.15;95.20;98639.94;4213292;28;20686;-91
2022/05/06 01:39:56;;;;;;;17.67;14.93;;;;;;;14.18;95.12;98642.34;4201901;28;20621;-91
2022/05/06 01:42:05;;;;;;;14.97;13.37;;;;;;;14.17;95.01;98634.59;4202085;28;20728;-91
2022/05/06 01:44:23;;;;;;;14.60;13.07;;;;;;;14.18;95.45;98638.91;4203960;28;20632;-91
2022/05/06 01:46:27;;;;;;;15.23;13.63;;;;;;;14.18;95.72;98642.34;4217190;28;20633;-91
2022/05/06 01:48:35;;;;;;;15.13;13.60;;;;;;;14.16;96.14;98641.63;4204709;28;20806;-91
2022/05/06 01:50:40;;;;;;;15.03;13.50;;;;;;;14.14;95.56;98646.13;4213368;28;20690;-91
2022/05/06 01:52:45;;;;;;;15.20;13.60;;;;;;;14.15;95.86;98636.50;4204040;28;21250;-91
2022/05/06 01:54:49;;;;;;;16.63;12.87;;;;;;;14.12;95.79;98634.09;4198183;28;20734;-91
2022/05/06 01:56:55;;;;;;;15.80;14.10;;;;;;;14.08;96.19;98630.00;4204120;28;20674;-91
2022/05/06 01:59:01;;;;;;;14.63;13.03;;;;;;;14.08;95.67;98635.25;4205119;28;20685;-91
2022/05/06 02:01:05;;;;;;;14.67;12.47;;;;;;;14.04;96.26;98636.38;4205952;28;20632;-91
2022/05/06 02:05:31;;;;;;;14.20;12.90;;;;;;;14.02;95.42;98635.69;4197280;28;20781;-91
2022/05/06 02:07:34;;;;;;;16.20;13.00;;;;;;;14.02;95.03;98633.06;4220821;28;20634;-91
2022/05/06 02:09:38;;;;;;;15.63;14.03;;;;;;;14.00;95.03;98627.09;4216121;28;20617;-91
2022/05/06 02:11:46;;;;;;;14.10;12.57;;;;;;;14.02;95.09;98630.44;4205215;28;20647;-91
2022/05/06 02:13:51;;;;;;;13.87;12.47;;;;;;;14.03;95.78;98629.50;4198832;28;20632;-91
2022/05/06 02:16:13;;;;;;;14.10;12.80;;;;;;;14.02;96.22;98625.19;4214979;28;20649;-92
2022/05/06 02:18:35;;;;;;;14.63;12.70;;;;;;;14.01;95.98;98631.41;4216239;28;20629;-91
2022/05/06 02:21:05;;;;;;;15.07;13.33;;;;;;;14.01;95.93;98631.41;4209288;28;20651;-92
2022/05/06 02:23:31;;;;;;;15.70;14.20;;;;;;;14.03;95.75;98632.13;4215517;28;20638;-91
2022/05/06 02:26:02;;;;;;;16.67;13.90;;;;;;;14.03;96.29;98629.50;4216158;28;20636;-91
2022/05/06 02:28:14;;;;;;;14.27;12.77;;;;;;;14.02;96.00;98632.22;4203147;28;21239;-91
2022/05/06 02:35:12;;;;;;;15.40;13.80;;;;;;;14.01;96.06;98627.91;4207690;28;20638;-91
2022/05/06 02:37:15;;;;;;;15.67;14.07;;;;;;;14.00;96.57;98632.34;4207151;28;20678;-91
2022/05/06 02:39:23;;;;;;;13.33;12.00;;;;;;;14.01;96.55;98643.66;4207121;28;20987;-92
2022/05/06 02:41:36;;;;;;;14.40;12.80;;;;;;;13.96;96.34;98640.53;4221484;28;21253;-91
2022/05/06 02:43:40;;;;;;;14.30;12.83;;;;;;;13.96;96.33;98640.53;4206353;28;20725;-91
2022/05/06 02:45:45;;;;;;;16.80;13.30;;;;;;;13.95;96.13;98644.97;4219407;28;20619;-92
2022/05/06 02:47:48;;;;;;;15.83;14.27;;;;;;;13.95;96.55;98644.97;4205345;28;21232;-91
2022/05/06 02:49:52;;;;;;;15.80;13.83;;;;;;;13.94;96.73;98647.69;4208216;28;20747;-91
2022/05/06 02:51:56;;;;;;;15.70;13.90;;;;;;;13.94;96.58;98647.69;4205396;28;20651;-91
2022/05/06 02:54:06;;;;;;;13.73;12.40;;;;;;;13.93;96.92;98652.09;4204637;28;20641;-92
2022/05/06 02:56:12;;;;;;;15.10;13.53;;;;;;;13.93;96.80;98646.84;4206780;28;21043;-92
2022/05/06 02:58:21;;;;;;;14.57;13.07;;;;;;;13.94;96.91;98647.69;4206735;28;20647;-92
2022/05/06 03:00:26;;;;;;;15.30;13.20;;;;;;;13.93;96.99;98643.38;4205225;28;20642;-92
2022/05/06 03:02:33;;;;;;;15.73;13.50;;;;;;;13.94;96.78;98642.44;4226354;28;20653;-91
2022/05/06 03:04:41;;;;;;;18.60;13.87;;;;;;;13.95;96.81;98637.09;4220336;28;20660;-92
2022/05/06 03:06:46;;;;;;;16.30;14.50;;;;;;;13.97;96.94;98642.22;4208883;28;20633;-92
2022/05/06 03:09:02;;;;;;;15.37;13.77;;;;;;;13.96;96.91;98640.53;4200415;28;20722;-91
2022/05/06 03:11:10;;;;;;;15.47;13.93;;;;;;;13.95;96.83;98638.84;4224147;28;20641;-91
2022/05/06 03:13:21;;;;;;;19.97;13.40;;;;;;;13.93;96.94;98636.34;4209880;28;20658;-92
2022/05/06 03:15:30;;;;;;;16.10;14.50;;;;;;;13.92;96.84;98633.84;4201116;28;20636;-92
2022/05/06 03:17:43;;;;;;;14.93;13.47;;;;;;;13.92;97.27;98634.69;4220118;28;20701;-92
2022/05/06 03:19:47;;;;;;;14.83;13.40;;;;;;;13.91;96.95;98640.06;4210338;28;20641;-91
2022/05/06 03:21:54;;;;;;;14.80;13.17;;;;;;;13.92;96.56;98645.19;4211819;28;20617;-92
2022/05/06 03:23:59;;;;;;;15.10;12.87;;;;;;;13.91;96.97;98634.81;4211936;28;20640;-91
2022/05/06 03:26:04;;;;;;;16.40;13.53;;;;;;;13.91;97.19;98640.88;4247686;28;20708;-91
2022/05/06 03:28:09;;;;;;;15.90;14.20;;;;;;;13.92;97.22;98642.56;4229876;28;20617;-90
2022/05/06 03:30:13;;;;;;;15.60;13.90;;;;;;;13.90;97.24;98643.63;4222398;28;20652;-89
2022/05/06 03:32:18;;;;;;;15.23;13.73;;;;;;;13.91;97.51;98642.66;4229567;28;20630;-92
2022/05/06 03:34:23;;;;;;;16.60;13.63;;;;;;;13.92;96.72;98641.72;4240180;28;20605;-92
2022/05/06 03:36:26;;;;;;;15.90;13.90;;;;;;;13.90;98.08;98636.56;4229589;28;20623;-90
2022/05/06 03:38:36;;;;;;;16.20;14.50;;;;;;;13.94;97.60;98642.44;4225253;28;20632;-91
2022/05/06 03:40:39;;;;;;;16.67;14.80;;;;;;;13.93;97.46;98641.59;4229477;28;20699;-91
2022/05/06 03:42:43;;;;;;;15.83;14.23;;;;;;;13.91;98.24;98640.06;4210329;28;20629;-91
2022/05/06 03:44:46;;;;;;;15.57;13.97;;;;;;;13.90;97.69;98639.19;4218123;28;20631;-92
2022/05/06 03:46:49;;;;;;;16.00;14.30;;;;;;;13.91;97.72;98640.88;4223053;27;20695;-92
2022/05/06 03:49:01;;;;;;;15.53;13.93;;;;;;;13.92;98.10;98633.84;4213027;28;21119;-92
2022/05/06 03:51:21;;;;;;;15.30;13.70;;;;;;;13.91;97.84;98637.44;4212969;28;20630;-91
2022/05/06 03:53:33;;;;;;;15.10;13.70;;;;;;;13.88;98.07;98627.16;4202501;28;20633;-91
2022/05/06 03:55:37;;;;;;;14.43;12.97;;;;;;;13.91;98.36;98643.50;4222996;28;21322;-91
2022/05/06 03:57:42;;;;;;;15.07;13.60;;;;;;;13.91;98.64;98642.66;4211879;28;20730;-91
2022/05/06 03:59:46;;;;;;;14.57;13.13;;;;;;;13.89;97.63;98641.94;4210327;28;20616;-92
2022/05/06 04:01:53;;;;;;;14.57;13.00;;;;;;;13.89;97.87;98640.16;4207687;28;20647;-92
2022/05/06 04:04:04;;;;;;;16.03;14.43;;;;;;;13.88;98.05;98648.97;4218447;28;20615;-92
2022/05/06 04:06:13;;;;;;;17.70;13.70;;;;;;;13.87;98.35;98644.66;4219839;28;20633;-91
2022/05/06 04:08:19;;;;;;;15.93;14.20;;;;;;;13.88;98.00;98648.97;4206325;28;20654;-91
2022/05/06 04:10:22;;;;;;;15.83;14.27;;;;;;;13.86;97.51;98645.63;4223478;28;21085;-92
2022/05/06 04:12:27;;;;;;;16.40;14.17;;;;;;;13.87;98.28;98657.78;4224797;28;21254;-91
2022/05/06 04:14:38;;;;;;;17.17;14.03;;;;;;;13.86;97.77;98653.50;4203198;28;20640;-91
2022/05/06 04:16:41;;;;;;;15.60;14.00;;;;;;;13.88;98.37;98653.38;4202669;28;20685;-92
2022/05/06 04:18:54;;;;;;;18.93;13.97;;;;;;;13.87;98.04;98655.16;4217962;28;20638;-91
2022/05/06 04:23:31;;;;;;;19.77;15.80;;;;;;;13.87;98.14;98654.31;4205756;28;20727;-91
2022/05/06 04:25:41;;;;;;;16.53;14.90;;;;;;;13.85;98.25;98653.59;4214850;28;20667;-92
2022/05/06 04:27:46;;;;;;;17.93;14.23;;;;;;;13.85;98.18;98654.44;4218548;27;20632;-92
2022/05/06 04:29:50;;;;;;;16.27;14.60;;;;;;;13.88;98.10;98663.88;4202712;28;20648;-92
2022/05/06 04:31:55;;;;;;;19.50;14.47;;;;;;;13.89;98.04;98660.28;4205983;28;20662;-91
2022/05/06 04:33:59;;;;;;;16.60;14.80;;;;;;;13.90;98.00;98668.03;4206307;28;20643;-91
2022/05/06 04:36:07;;;;;;;17.20;14.00;;;;;;;13.89;98.05;98658.53;4209118;28;20631;-92
2022/05/06 04:38:11;;;;;;;19.60;13.90;;;;;;;13.91;98.06;98667.09;4208123;28;20650;-92
2022/05/06 04:40:16;;;;;;;16.33;14.03;;;;;;;13.93;98.04;98667.81;4207964;28;20732;-91
2022/05/06 04:42:21;;;;;;;16.20;14.50;;;;;;;13.94;97.94;98666.06;4215729;28;20642;-92
2022/05/06 04:44:24;;;;;;;16.43;14.83;;;;;;;13.94;98.89;98668.69;4219483;28;21283;-92
2022/05/06 04:46:29;;;;;;;16.80;14.80;;;;;;;13.96;98.71;98679.88;4221075;28;20747;-92
2022/05/06 04:48:35;;;;;;;16.70;15.00;;;;;;;13.95;98.92;98681.69;4205272;28;21075;-92
2022/05/06 04:50:42;;;;;;;15.40;13.80;;;;;;;13.98;98.92;98675.34;4216824;28;20686;-91
2022/05/06 04:52:47;;;;;;;15.33;13.80;;;;;;;14.00;98.54;98682.19;4219865;28;21178;-92
2022/05/06 04:54:52;;;;;;;18.40;15.57;;;;;;;14.01;98.87;98683.00;4205060;28;20705;-91
2022/05/06 04:56:57;;;;;;;16.83;14.30;;;;;;;14.03;98.76;98694.25;4207081;28;20624;-91
2022/05/06 04:59:07;;;;;;;15.30;13.73;;;;;;;14.03;98.70;98689.81;4206325;28;20639;-92
2022/05/06 05:01:19;;;;;;;15.63;13.87;;;;;;;14.02;98.77;98688.13;4224530;28;20631;-92
2022/05/06 05:03:24;;;;;;;15.07;13.47;;;;;;;14.03;98.93;98697.69;4203431;28;20622;-92
2022/05/06 05:05:31;;;;;;;14.97;13.57;;;;;;;14.01;98.68;98689.09;4203993;28;20722;-91
2022/05/06 05:07:38;;;;;;;16.43;14.77;;;;;;;14.04;98.86;98696.72;4207473;28;21272;-91
2022/05/06 05:09:41;;;;;;;17.70;15.20;;;;;;;14.05;98.75;98693.19;4205360;28;20656;-91
2022/05/06 05:11:47;;;;;;;15.80;14.00;;;;;;;14.04;98.34;98698.53;4201982;28;20636;-92
2022/05/06 05:14:06;;;;;;;16.53;14.93;;;;;;;14.03;98.71;98695.06;4222459;28;20635;-91
2022/05/06 05:16:13;;;;;;;16.77;14.97;;;;;;;14.05;99.35;98698.44;4224356;27;20665;-92
2022/05/06 05:18:18;;;;;;;15.47;13.83;;;;;;;14.02;98.28;98688.13;4210740;28;20640;-91
2022/05/06 05:20:22;;;;;;;16.83;15.23;;;;;;;14.09;98.42;98702.53;4209754;28;20616;-92
2022/05/06 05:22:27;;;;;;;16.23;14.57;;;;;;;14.11;97.97;98705.88;4203509;28;20678;-91
2022/05/06 05:24:31;;;;;;;17.50;15.70;;;;;;;14.10;98.15;98692.88;4222863;28;20667;-92
2022/05/06 05:26:36;;;;;;;17.20;15.53;;;;;;;14.13;97.56;98701.34;4204925;28;21205;-91
2022/05/06 05:28:41;;;;;;;16.43;14.83;;;;;;;14.15;97.24;98705.53;4205518;28;20702;-91
2022/05/06 05:30:46;;;;;;;17.73;15.93;;;;;;;14.15;97.63;98702.09;4225644;28;20642;-92
2022/05/06 05:32:51;;;;;;;17.17;15.27;;;;;;;14.16;98.08;98701.97;4201045;28;20636;-91
2022/05/06 05:34:54;;;;;;;16.90;15.17;;;;;;;14.18;97.43;98707.09;4203806;28;20647;-90
2022/05/06 05:37:01;;;;;;;17.60;15.80;;;;;;;14.18;97.09;98707.94;4217277;28;20680;-90
2022/05/06 05:39:05;;;;;;;17.13;15.33;;;;;;;14.19;97.59;98708.75;4219593;28;20785;-93
2022/05/06 05:41:09;;;;;;;17.63;15.80;;;;;;;14.20;97.16;98708.66;4214393;28;20628;-91
2022/05/06 05:48:19;;;;;;;16.90;15.20;;;;;;;14.22;96.82;98713.78;4206339;28;20636;-90
2022/05/06 05:50:23;;;;;;;22.40;15.37;;;;;;;14.22;95.76;98705.91;4203390;28;21164;-90
2022/05/06 05:52:27;;;;;;;17.27;15.53;;;;;;;14.25;96.50;98708.31;4220702;28;20623;-91
2022/05/06 05:54:31;;;;;;;16.77;15.07;;;;;;;14.22;96.31;98706.78;4221848;28;20649;-90
2022/05/06 05:56:37;;;;;;;18.30;15.80;;;;;;;14.24;95.38;98706.66;4222648;28;20626;-91
2022/05/06 05:58:44;;;;;;;22.43;18.90;;;;;;;14.27;95.64;98709.88;4219475;28;20709;-91
2022/05/06 06:00:53;;;;;;;21.70;19.70;;;;;;;14.29;95.14;98709.78;4204013;28;21119;-89
2022/05/06 06:03:04;;;;;;;21.80;18.00;;;;;;;14.30;94.92;98707.03;4195693;28;20632;-89
2022/05/06 06:05:12;;;;;;;25.70;23.00;;;;;;;14.31;95.11;98705.25;4202025;28;20631;-88
2022/05/06 06:07:18;;;;;;;20.43;18.20;;;;;;;14.34;95.06;98710.28;4195514;28;20715;-89
2022/05/06 06:09:28;;;;;;;18.27;16.47;;;;;;;14.34;95.11;98713.75;4203717;28;20691;-89
2022/05/06 06:11:39;;;;;;;16.80;15.10;;;;;;;14.36;94.55;98711.00;4203236;28;20652;-91
2022/05/06 06:13:45;;;;;;;18.77;16.73;;;;;;;14.37;94.94;98713.53;4208390;28;20636;-87
2022/05/06 06:15:54;;;;;;;17.70;15.10;;;;;;;14.38;93.69;98714.34;4221069;27;20707;-87
2022/05/06 06:18:00;;;;;;;17.30;15.43;;;;;;;14.38;93.65;98716.97;4209694;28;21831;-87
2022/05/06 06:20:08;;;;;;;17.37;15.00;;;;;;;14.42;94.45;98715.81;4223366;28;20670;-89
2022/05/06 06:22:20;;;;;;;19.02;17.10;;;;;;;14.48;94.43;98720.59;4224814;27;21255;-88
2022/05/06 06:24:29;;;;;;;19.37;17.47;;;;;;;14.51;94.12;98717.72;4217690;28;20207;-88
2022/05/06 06:26:34;;;;;;;19.73;17.70;;;;;;;14.52;93.50;98716.78;4202078;28;20644;-88
2022/05/06 06:28:41;;;;;;;23.20;20.90;;;;;;;14.56;92.54;98723.50;4199029;28;20631;-88
2022/05/06 06:30:48;;;;;;;26.83;23.93;;;;;;;14.56;92.77;98724.31;4201209;28;20655;-87
2022/05/06 06:32:52;;;;;;;16.70;14.70;;;;;;;14.57;91.92;98723.38;4203694;28;20622;-88
2022/05/06 06:34:57;;;;;;;18.40;16.47;;;;;;;14.59;92.08;98724.09;4214986;28;20625;-88
2022/05/06 06:37:07;;;;;;;17.90;15.50;;;;;;;14.59;92.54;98724.94;4209356;28;20643;-88
2022/05/06 06:39:15;;;;;;;20.20;14.97;;;;;;;14.61;93.24;98728.31;4211952;28;20889;-87
2022/05/06 06:41:22;;;;;;;18.90;15.93;;;;;;;14.60;92.45;98724.00;4219582;27;20638;-88
2022/05/06 06:43:25;;;;;;;19.33;15.80;;;;;;;14.62;93.23;98731.75;4216298;28;20667;-88
2022/05/06 06:45:42;;;;;;;16.50;14.80;;;;;;;14.61;91.94;98730.94;4228991;27;20628;-88
2022/05/06 06:48:05;;;;;;;19.20;15.83;;;;;;;14.61;93.04;98741.44;4219681;27;20653;-87
2022/05/06 06:50:17;;;;;;;18.27;14.40;;;;;;;14.63;93.00;98728.19;4200909;28;21207;-84
2022/05/06 06:52:54;;;;;;;14.80;13.30;;;;;;;14.65;91.58;98734.97;4214633;28;21005;-83
2022/05/06 06:54:57;;;;;;;16.30;14.33;;;;;;;14.65;89.71;98734.97;4221333;27;21269;-84
2022/05/06 06:57:03;;;;;;;16.00;14.30;;;;;;;14.69;90.40;98733.81;4219571;28;20710;-84
2022/05/06 06:59:06;;;;;;;15.57;13.80;;;;;;;14.72;91.30;98736.22;4220060;28;20970;-83
2022/05/06 07:01:09;;;;;;;14.90;13.40;;;;;;;14.73;91.33;98743.16;4222525;28;20661;-85
2022/05/06 07:03:13;;;;;;;17.37;13.50;;;;;;;14.74;91.30;98742.16;4206939;28;20711;-84
2022/05/06 07:05:17;;;;;;;17.40;14.70;;;;;;;14.77;90.98;98741.13;4219396;28;20693;-84
2022/05/06 07:12:06;;;;;;;15.37;13.23;;;;;;;14.83;90.65;98746.75;4224862;28;21316;-88
2022/05/06 07:14:12;;;;;;;14.33;12.70;;;;;;;14.85;92.14;98744.00;4225101;27;20695;-87
2022/05/06 07:16:16;;;;;;;13.40;12.00;;;;;;;14.88;89.80;98749.84;4222808;27;20642;-87
2022/05/06 07:18:19;;;;;;;13.37;12.00;;;;;;;14.92;90.10;98750.47;4219093;27;20643;-88
2022/05/06 07:20:23;;;;;;;13.90;11.90;;;;;;;14.94;89.59;98749.41;4215182;27;20637;-89
2022/05/06 07:22:26;;;;;;;17.00;11.83;;;;;;;14.97;90.07;98753.59;4214954;28;20640;-87
2022/05/06 07:24:30;;;;;;;15.63;12.20;;;;;;;14.98;90.76;98753.47;4214175;28;21043;-89
2022/05/06 07:26:34;;;;;;;14.63;11.70;;;;;;;15.01;89.17;98755.88;4204925;28;20633;-88
2022/05/06 07:28:38;;;;;;;13.33;11.40;;;;;;;15.04;88.83;98763.53;4218521;28;21135;-88
2022/05/06 07:30:41;;;;;;;13.07;11.03;;;;;;;15.07;90.00;98763.28;4219564;28;20654;-89
2022/05/06 07:32:45;;;;;;;14.00;11.83;;;;;;;15.09;90.16;98762.22;4212302;27;20688;-88
2022/05/06 07:34:49;;;;;;;14.20;11.20;;;;;;;15.13;88.23;98760.19;4198963;28;20637;-86
2022/05/06 07:36:52;;;;;;;13.13;11.73;;;;;;;15.16;89.50;98757.34;4211865;28;20630;-87
2022/05/06 07:38:55;;;;;;;12.27;10.30;;;;;;;15.21;89.88;98763.09;4217429;28;21071;-88
2022/05/06 07:41:01;;;;;;;12.10;10.80;;;;;;;15.24;89.81;98757.63;4211808;28;20617;-88
2022/05/06 07:43:08;;;;;;;13.43;10.50;;;;;;;15.20;85.25;98751.78;4215105;28;20729;-90
2022/05/06 07:45:12;;;;;;;10.70;9.37;;;;;;;15.21;85.36;98755.22;4198042;28;20638;-88
2022/05/06 07:47:15;;;;;;;11.53;9.37;;;;;;;15.24;82.90;98757.63;4213152;28;20670;-88
2022/05/06 07:49:25;;;;;;;11.90;10.00;;;;;;;15.27;83.93;98752.13;4201571;28;21038;-91
2022/05/06 07:51:29;;;;;;;11.40;10.10;;;;;;;15.35;85.92;98757.63;4217013;28;20699;-91
2022/05/06 07:53:32;;;;;;;11.53;10.20;;;;;;;15.40;86.13;98758.13;4195056;28;20627;-88
2022/05/06 07:55:36;;;;;;;13.87;11.43;;;;;;;15.44;86.87;98749.03;4201796;28;20668;-92
2022/05/06 07:57:40;;;;;;;11.87;10.00;;;;;;;15.48;85.18;98748.69;4219818;27;20772;-88
2022/05/06 07:59:44;;;;;;;11.23;10.10;;;;;;;15.52;86.79;98751.94;4212284;27;20743;-92
2022/05/06 08:06:31;;;;;;;11.87;10.70;;;;;;;15.58;87.80;98758.38;4213312;28;20716;-89
2022/05/06 08:08:34;;;;;;;12.20;9.90;;;;;;;15.61;87.70;98763.41;4213179;27;20671;-92
2022/05/06 08:10:37;;;;;;;10.80;9.73;;;;;;;15.64;86.29;98764.97;4195471;28;20691;-91
2022/05/06 08:12:41;;;;;;;10.83;9.60;;;;;;;15.64;87.02;98765.78;4200597;28;20651;-91
2022/05/06 08:14:45;;;;;;;12.20;10.10;;;;;;;15.66;85.02;98765.66;4204046;28;20648;-91
2022/05/06 08:16:50;;;;;;;14.83;11.40;;;;;;;15.73;87.36;98770.34;4204259;28;20641;-92
2022/05/06 08:18:53;;;;;;;11.47;8.37;;;;;;;15.75;85.30;98768.41;4214377;28;20634;-91
2022/05/06 08:20:57;;;;;;;10.23;8.57;;;;;;;15.80;85.21;98770.69;4196813;28;20634;-91
2022/05/06 08:23:00;;;;;;;11.00;9.23;;;;;;;15.84;84.20;98770.31;4218899;28;21214;-90
2022/05/06 08:25:04;;;;;;;11.13;8.57;;;;;;;15.90;84.87;98774.28;4206497;28;21215;-93
2022/05/06 08:27:25;;;;;;;11.80;8.90;;;;;;;15.97;83.28;98776.31;4204358;28;20658;-89
2022/05/06 08:29:28;;;;;;;9.43;8.53;;;;;;;16.02;83.46;98772.34;4212143;28;20655;-90
2022/05/06 08:31:37;;;;;;;9.33;8.37;;;;;;;16.10;83.54;98772.59;4201434;28;20725;-91
2022/05/06 08:33:41;;;;;;;13.17;10.97;;;;;;;16.16;83.99;98773.88;4212658;28;20629;-92
2022/05/06 08:35:45;;;;;;;13.77;11.97;;;;;;;16.20;82.97;98765.63;4198885;28;20655;-89
2022/05/06 08:37:49;;;;;;;22.67;19.33;;;;;;;16.27;84.64;98766.84;4197932;28;21579;-93
2022/05/06 08:39:52;;;;;;;11.73;9.30;;;;;;;16.31;84.55;98767.41;4219810;28;20700;-91
2022/05/06 08:41:57;;;;;;;10.43;9.40;;;;;;;16.37;84.38;98773.03;4198275;28;20627;-91
2022/05/06 08:50:50;;;;;;;8.93;8.03;;;;;;;16.41;84.04;98776.25;4212684;28;20771;-91
2022/05/06 08:51:10;;;;;;;10.20;8.57;;;;;;;16.45;83.78;98778.53;4204084;28;20638;-92
2022/05/06 08:53:14;;;;;;;12.77;9.50;;;;;;;16.51;84.02;98772.75;4206945;28;21071;-92
2022/05/06 08:55:18;;;;;;;9.00;8.10;;;;;;;16.56;83.02;98775.84;4202700;28;20686;-89
2022/05/06 08:57:21;;;;;;;9.00;8.10;;;;;;;16.61;81.54;98777.16;4205835;28;20639;-90
2022/05/06 08:59:25;;;;;;;10.10;8.30;;;;;;;16.67;81.66;98779.31;4206269;28;20644;-92
2022/05/06 09:01:28;;;;;;;9.93;7.63;;;;;;;16.75;82.42;98782.13;4204054;28;20662;-92
2022/05/06 09:03:32;;;;;;;8.63;7.73;;;;;;;16.77;82.49;98774.94;4213461;27;20618;-92
2022/05/06 09:05:50;;;;;;;10.63;7.90;;;;;;;16.90;81.06;98770.34;4219841;27;20720;-92
2022/05/06 09:07:58;;;;;;;9.83;7.20;;;;;;;16.99;81.96;98778.31;4223918;28;20632;-92
2022/05/06 09:10:19;;;;;;;9.17;7.00;;;;;;;17.05;80.31;98771.69;4211620;27;21235;-91
2022/05/06 09:12:44;;;;;;;8.43;7.50;;;;;;;17.09;80.38;98773.09;4199530;28;20654;-92
2022/05/06 09:17:24;;;;;;;11.33;6.80;;;;;;;17.18;76.93;98775.78;4211200;28;20634;-92
2022/05/06 09:19:29;;;;;;;8.00;6.60;;;;;;;17.30;76.81;98780.06;4202028;28;20705;-92
2022/05/06 09:21:34;;;;;;;12.80;7.33;;;;;;;17.46;78.08;98784.91;4210942;28;20645;-92
2022/05/06 09:23:37;;;;;;;8.17;7.10;;;;;;;17.59;78.68;98781.94;4199210;28;21305;-92
2022/05/06 09:25:45;;;;;;;9.07;6.90;;;;;;;17.66;77.69;98779.59;4204042;28;22386;-92
2022/05/06 09:27:54;;;;;;;8.63;7.17;;;;;;;17.72;77.11;98785.19;4200347;28;20635;-92
2022/05/06 09:29:58;;;;;;;9.43;7.07;;;;;;;17.80;77.84;98785.38;4198087;28;21200;-91
2022/05/06 09:32:17;;;;;;;8.37;7.00;;;;;;;17.85;75.56;98784.97;4212713;28;20639;-90
2022/05/06 09:34:27;;;;;;;9.73;6.60;;;;;;;17.83;71.56;98781.63;4209841;28;20649;-90
2022/05/06 09:36:31;;;;;;;8.17;6.60;;;;;;;17.79;70.65;98775.78;4201581;28;20973;-91
2022/05/06 09:38:36;;;;;;;7.37;6.30;;;;;;;17.78;68.83;98774.09;4203619;28;20663;-90
2022/05/06 09:40:40;;;;;;;8.80;6.40;;;;;;;17.89;68.63;98775.81;4208480;28;20649;-90
2022/05/06 09:42:45;;;;;;;9.03;7.03;;;;;;;18.00;68.58;98779.19;4220103;28;20627;-92
2022/05/06 09:44:48;;;;;;;9.67;7.10;;;;;;;18.14;68.93;98777.03;4227155;28;20687;-92
2022/05/06 09:47:08;;;;;;;7.60;5.83;;;;;;;18.25;67.94;98776.97;4223501;28;20614;-89
2022/05/06 09:49:14;;;;;;;8.20;6.60;;;;;;;18.34;67.72;98778.75;4210801;28;20633;-93
2022/05/06 09:51:38;;;;;;;7.77;6.23;;;;;;;18.40;67.37;98769.47;4218885;28;20676;-92
2022/05/06 09:53:43;;;;;;;7.07;5.80;;;;;;;18.50;66.76;98779.91;4219934;28;20658;-91
2022/05/06 09:55:48;;;;;;;8.27;5.70;;;;;;;18.57;66.44;98772.28;4210162;28;21108;-92
2022/05/06 09:57:52;;;;;;;7.10;6.40;;;;;;;18.57;65.96;98773.13;4222612;28;20646;-90
2022/05/06 09:59:55;;;;;;;9.03;6.10;;;;;;;18.60;67.41;98782.59;4202057;28;20623;-93
2022/05/06 10:01:59;;;;;;;8.30;6.00;;;;;;;18.56;64.44;98784.66;4206007;28;20634;-91
2022/05/06 10:04:09;;;;;;;9.03;6.80;;;;;;;18.44;65.41;98776.97;4227680;28;20624;-91
2022/05/06 10:06:13;;;;;;;9.30;6.33;;;;;;;18.47;64.91;98785.47;4204659;28;20708;-92
2022/05/06 10:08:19;;;;;;;10.80;6.03;;;;;;;18.50;64.23;98771.97;4206166;28;20630;-92
2022/05/06 10:10:26;;;;;;;7.77;6.40;;;;;;;18.52;62.19;98775.34;4207753;28;20623;-90
2022/05/06 10:12:35;;;;;;;9.57;5.90;;;;;;;18.64;63.93;98782.19;4219769;28;20618;-91
2022/05/06 10:14:41;;;;;;;7.40;5.83;;;;;;;18.80;64.59;98779.81;4212415;28;20626;-90
2022/05/06 10:16:45;;;;;;;8.20;5.60;;;;;;;18.94;66.57;98771.44;4225877;28;21180;-92
2022/05/06 10:18:48;;;;;;;6.90;5.60;;;;;;;18.99;64.07;98766.59;4223359;28;20725;-91